Time;durP1;ratioP1;P1;durP2;ratioP2;P2;SDS_P1;SDS_P2;PMS_P1;PMS_P2;Temp;Humidity;BMP_temperature;BMP_pressure;BME280_temperature;BME280_humidity;BME280_pressure;Samples;Min_cycle;Max_cycle;Signal;HPM_P1;HPM_P2
2023/04/07 00:00:27;;;;;;;10.80;9.70;;;;;;;7.50;100.00;101969.25;4993206;28;20213;-72
2023/04/07 00:02:52;;;;;;;12.40;10.70;;;;;;;7.43;100.00;101937.81;4978022;28;20444;-72
2023/04/07 00:05:18;;;;;;;10.07;9.07;;;;;;;7.99;100.00;102013.28;4990581;28;20249;-72
2023/04/07 00:07:43;;;;;;;9.83;8.83;;;;;;;7.42;100.00;101914.75;4992311;28;20564;-72
2023/04/07 00:10:09;;;;;;;13.07;9.50;;;;;;;7.70;100.00;101966.28;4972636;28;22157;-73
2023/04/07 00:12:35;;;;;;;11.60;9.30;;;;;;;7.28;100.00;101909.94;4986030;28;20177;-72
2023/04/07 00:15:00;;;;;;;11.03;9.90;;;;;;;7.04;100.00;101891.84;4992469;28;20434;-72
2023/04/07 00:17:26;;;;;;;10.83;9.07;;;;;;;7.77;100.00;102003.06;4997033;28;20674;-73
2023/04/07 00:19:51;;;;;;;10.20;8.50;;;;;;;7.87;100.00;101993.16;4995105;28;20209;-72
2023/04/07 00:22:17;;;;;;;9.83;8.80;;;;;;;7.37;100.00;101924.22;4996717;28;20176;-73
2023/04/07 00:24:42;;;;;;;9.20;8.30;;;;;;;7.23;100.00;101965.59;4995163;28;20656;-72
2023/04/07 00:27:08;;;;;;;8.70;7.90;;;;;;;7.73;100.00;102004.38;4974486;28;20185;-72
2023/04/07 00:29:33;;;;;;;8.60;7.70;;;;;;;7.61;100.00;101971.69;4998729;28;20216;-73
2023/04/07 00:31:59;;;;;;;8.40;7.33;;;;;;;7.11;100.00;101871.56;4996123;28;20193;-72
2023/04/07 00:34:24;;;;;;;9.07;8.10;;;;;;;7.26;100.00;101898.56;4991139;28;20555;-73
2023/04/07 00:36:51;;;;;;;8.00;7.23;;;;;;;7.25;100.00;101879.06;4994327;28;20214;-73
2023/04/07 00:39:20;;;;;;;7.77;6.97;;;;;;;6.76;100.00;101805.69;4981100;28;20196;-73
2023/04/07 00:41:46;;;;;;;8.47;7.67;;;;;;;6.97;100.00;101837.41;4997056;28;20823;-73
2023/04/07 00:44:12;;;;;;;7.80;6.97;;;;;;;5.86;100.00;101687.38;4995251;28;20432;-73
2023/04/07 00:46:38;;;;;;;7.20;6.50;;;;;;;6.46;100.00;101749.06;4991283;28;20448;-72
2023/04/07 00:49:05;;;;;;;7.90;6.93;;;;;;;6.03;100.00;101715.06;4989475;28;20511;-73
2023/04/07 00:51:31;;;;;;;8.07;7.30;;;;;;;7.07;100.00;101872.88;4976466;28;20209;-72
2023/04/07 00:53:57;;;;;;;8.27;7.13;;;;;;;7.92;100.00;101988.16;4971157;28;20440;-72
2023/04/07 00:56:22;;;;;;;7.47;6.77;;;;;;;7.37;100.00;101900.19;4987823;28;20470;-73
2023/04/07 00:58:48;;;;;;;8.03;6.90;;;;;;;7.75;100.00;101955.13;4991150;28;20189;-72
2023/04/07 01:01:23;;;;;;;7.00;6.40;;;;;;;7.37;100.00;101890.34;4989635;28;20210;-73
2023/04/07 01:04:16;;;;;;;7.80;7.10;;;;;;;7.45;100.00;101924.31;4974872;28;20208;-73
2023/04/07 01:06:49;;;;;;;8.00;6.67;;;;;;;7.20;100.00;101883.16;4990342;28;20452;-73
2023/04/07 01:09:22;;;;;;;9.70;6.20;;;;;;;7.21;100.00;101872.34;4970219;28;20445;-73
2023/04/07 01:11:58;;;;;;;6.73;6.13;;;;;;;6.91;100.00;101856.69;4975662;28;20831;-72
2023/04/07 01:14:29;;;;;;;9.80;7.27;;;;;;;7.05;100.00;101917.53;4961442;28;20800;-72
2023/04/07 01:17:00;;;;;;;7.90;6.17;;;;;;;7.68;100.00;101965.56;4972547;28;20512;-73
2023/04/07 01:19:43;;;;;;;7.13;6.43;;;;;;;7.73;100.00;101994.50;4973296;28;20436;-72
2023/04/07 01:22:12;;;;;;;6.77;6.07;;;;;;;7.66;100.00;102001.44;4989641;28;20436;-72
2023/04/07 01:25:12;;;;;;;6.97;6.33;;;;;;;7.80;100.00;101998.25;4991134;28;20468;-72
2023/04/07 01:27:42;;;;;;;8.03;7.23;;;;;;;7.21;100.00;101924.91;4987630;28;20921;-72
2023/04/07 01:30:14;;;;;;;7.17;6.50;;;;;;;7.80;100.00;102000.91;4997146;28;20547;-73
2023/04/07 01:32:44;;;;;;;7.00;6.40;;;;;;;6.61;100.00;101821.34;4993757;28;20437;-72
2023/04/07 01:35:12;;;;;;;7.93;6.73;;;;;;;7.15;100.00;101933.50;4996314;28;20898;-73
2023/04/07 01:37:38;;;;;;;7.67;6.90;;;;;;;7.02;100.00;101902.66;4974523;28;20455;-72
2023/04/07 01:40:08;;;;;;;8.00;6.50;;;;;;;6.85;100.00;101881.28;4988365;28;20471;-73
2023/04/07 01:42:36;;;;;;;10.67;6.63;;;;;;;7.00;100.00;101890.44;4963429;28;20613;-73
2023/04/07 01:45:03;;;;;;;7.10;6.40;;;;;;;7.11;100.00;101903.59;4990992;28;20945;-73
2023/04/07 01:47:29;;;;;;;6.87;6.27;;;;;;;7.33;100.00;101968.22;4972678;28;20454;-72
2023/04/07 01:49:57;;;;;;;7.87;7.07;;;;;;;6.96;100.00;101907.75;4971383;28;20609;-72
2023/04/07 01:52:25;;;;;;;7.10;6.40;;;;;;;6.97;100.00;101906.75;4982793;28;21137;-73
2023/04/07 01:54:52;;;;;;;7.00;6.30;;;;;;;6.92;100.00;101901.06;4985435;28;20443;-72
2023/04/07 01:57:18;;;;;;;7.00;6.40;;;;;;;6.94;100.00;101915.06;4981074;28;20452;-72
2023/04/07 01:59:43;;;;;;;7.00;6.30;;;;;;;6.66;100.00;101880.41;4983303;28;20515;-72
2023/04/07 02:02:09;;;;;;;7.30;6.60;;;;;;;6.93;100.00;101918.72;4984301;28;20185;-72
2023/04/07 02:04:39;;;;;;;8.03;7.23;;;;;;;7.46;100.00;102019.41;4984242;28;20214;-72
2023/04/07 02:07:18;;;;;;;7.87;7.13;;;;;;;6.75;100.00;101889.34;4990188;28;20193;-72
2023/04/07 02:09:46;;;;;;;7.20;6.50;;;;;;;7.29;100.00;101985.50;4987821;28;20439;-72
2023/04/07 02:12:14;;;;;;;7.87;7.07;;;;;;;7.68;100.00;102024.34;4970523;28;20781;-72
2023/04/07 02:14:41;;;;;;;7.60;6.77;;;;;;;7.48;100.00;102030.78;4967136;28;20445;-72
2023/04/07 02:17:08;;;;;;;7.50;6.80;;;;;;;7.01;100.00;101913.50;4983548;28;20621;-72
2023/04/07 02:19:34;;;;;;;7.73;7.03;;;;;;;7.12;100.00;101941.81;4961209;28;20440;-72
2023/04/07 02:22:05;;;;;;;7.23;6.53;;;;;;;6.73;100.00;101891.31;4976603;28;20636;-72
2023/04/07 02:24:31;;;;;;;7.83;6.83;;;;;;;6.60;100.00;101873.00;4969742;28;20505;-73
2023/04/07 02:26:57;;;;;;;8.00;7.20;;;;;;;7.74;100.00;102030.06;4983616;28;20530;-73
2023/04/07 02:29:22;;;;;;;8.90;8.00;;;;;;;7.39;100.00;101978.28;4987945;28;20198;-72
2023/04/07 02:31:47;;;;;;;7.40;6.70;;;;;;;7.58;100.00;102022.69;4986847;28;20206;-72
2023/04/07 02:34:13;;;;;;;7.07;6.37;;;;;;;7.04;100.00;101933.69;4982129;28;20278;-72
2023/04/07 02:36:38;;;;;;;7.77;7.00;;;;;;;7.21;100.00;101946.25;4986438;28;20190;-72
2023/04/07 02:39:04;;;;;;;7.30;6.67;;;;;;;6.97;100.00;101912.97;4983201;28;20303;-72
2023/04/07 02:41:30;;;;;;;8.40;7.60;;;;;;;6.85;100.00;101883.94;4985211;28;20210;-72
2023/04/07 02:43:55;;;;;;;9.23;8.00;;;;;;;7.64;100.00;102022.13;4970119;28;20189;-72
2023/04/07 02:46:20;;;;;;;8.20;7.40;;;;;;;7.64;100.00;102011.44;4976399;28;20587;-72
2023/04/07 02:48:46;;;;;;;9.30;7.73;;;;;;;6.18;100.00;101766.03;4983167;28;20193;-72
2023/04/07 02:51:11;;;;;;;8.97;8.07;;;;;;;7.07;100.00;101923.56;4963698;28;20278;-72
2023/04/07 02:53:37;;;;;;;8.23;7.43;;;;;;;7.82;100.00;102028.31;4980977;28;20189;-72
2023/04/07 02:56:02;;;;;;;9.50;8.60;;;;;;;7.84;100.00;102033.50;4980516;28;20187;-73
2023/04/07 02:58:28;;;;;;;10.00;8.67;;;;;;;7.46;100.00;101972.22;4988178;28;20251;-73
2023/04/07 03:00:53;;;;;;;9.07;8.17;;;;;;;7.20;100.00;101915.19;4970087;28;20213;-73
2023/04/07 03:03:19;;;;;;;10.00;9.00;;;;;;;7.84;100.00;102028.16;4986532;28;20193;-72
2023/04/07 03:05:44;;;;;;;10.70;9.00;;;;;;;7.56;100.00;101966.81;4966958;28;20209;-72
2023/04/07 03:08:10;;;;;;;8.93;8.07;;;;;;;7.90;100.00;102024.91;4988743;28;20189;-72
2023/04/07 03:10:35;;;;;;;9.93;8.93;;;;;;;7.49;100.00;101973.72;4967882;28;20221;-73
2023/04/07 03:13:01;;;;;;;9.37;8.10;;;;;;;7.80;100.00;102018.78;4987034;28;20200;-72
2023/04/07 03:15:26;;;;;;;9.90;9.00;;;;;;;7.68;100.00;102028.84;4987988;28;20562;-72
2023/04/07 03:17:52;;;;;;;10.00;9.00;;;;;;;7.54;100.00;102003.47;4984581;28;20197;-72
2023/04/07 03:20:17;;;;;;;11.80;10.60;;;;;;;7.25;100.00;101942.28;4989372;28;20209;-72
2023/04/07 03:22:43;;;;;;;9.13;8.30;;;;;;;7.65;100.00;102032.66;4966553;28;20247;-72
2023/04/07 03:25:09;;;;;;;9.80;8.80;;;;;;;7.33;100.00;101965.56;4970979;28;20220;-73
2023/04/07 03:27:35;;;;;;;9.90;8.90;;;;;;;7.51;100.00;101990.44;4992716;28;20185;-72
2023/04/07 03:30:01;;;;;;;9.37;8.00;;;;;;;7.18;100.00;101943.88;4985768;28;20495;-73
2023/04/07 03:32:26;;;;;;;10.70;9.20;;;;;;;7.17;100.00;101952.84;4970619;28;20556;-72
2023/04/07 03:34:52;;;;;;;10.70;8.27;;;;;;;6.42;100.00;101838.31;4995848;28;20428;-73
2023/04/07 03:37:17;;;;;;;10.90;9.70;;;;;;;7.38;100.00;101958.78;5000620;28;20186;-73
2023/04/07 03:39:42;;;;;;;10.40;9.30;;;;;;;7.87;100.00;102038.56;4993561;28;20690;-73
2023/04/07 03:42:08;;;;;;;10.50;9.50;;;;;;;6.65;100.00;101846.72;4998567;28;20192;-73
2023/04/07 03:44:33;;;;;;;11.00;9.30;;;;;;;6.87;100.00;101911.31;4981450;28;20737;-73
2023/04/07 03:46:59;;;;;;;11.57;10.13;;;;;;;7.27;100.00;101985.66;4997515;28;20648;-73
2023/04/07 03:49:25;;;;;;;10.87;9.77;;;;;;;7.72;100.00;102051.56;4998416;28;20193;-73
2023/04/07 03:51:51;;;;;;;11.67;9.33;;;;;;;6.42;100.00;101806.31;4977580;28;20509;-73
2023/04/07 03:54:16;;;;;;;10.20;9.10;;;;;;;7.21;100.00;101965.75;4997403;28;20424;-73
2023/04/07 03:56:42;;;;;;;11.23;9.60;;;;;;;6.75;100.00;101900.00;4997744;28;20216;-73
2023/04/07 03:59:07;;;;;;;10.53;9.43;;;;;;;6.60;100.00;101902.31;4975913;28;20201;-73
2023/04/07 04:01:33;;;;;;;11.00;9.90;;;;;;;6.86;100.00;101926.50;4994005;28;20212;-73
2023/04/07 04:03:58;;;;;;;11.97;10.77;;;;;;;6.92;100.00;101935.72;4993319;28;20186;-73
2023/04/07 04:06:25;;;;;;;11.17;9.80;;;;;;;7.63;100.00;102068.50;4993137;28;20214;-73
2023/04/07 04:08:50;;;;;;;11.50;10.30;;;;;;;7.00;100.00;101976.69;4990455;28;20200;-73
2023/04/07 04:11:16;;;;;;;11.97;10.77;;;;;;;7.55;100.00;102057.72;4996973;22;20505;-71
2023/04/07 04:13:41;;;;;;;10.90;9.80;;;;;;;7.66;100.00;102050.34;4962730;28;20197;-71
2023/04/07 04:16:07;;;;;;;12.00;10.80;;;;;;;7.40;100.00;102028.00;4981218;28;20261;-71
2023/04/07 04:18:32;;;;;;;11.47;10.27;;;;;;;7.62;100.00;102067.66;4982341;28;20235;-71
2023/04/07 04:20:57;;;;;;;12.67;11.37;;;;;;;7.67;100.00;102081.41;4982927;28;20216;-71
2023/04/07 04:23:23;;;;;;;12.30;10.83;;;;;;;7.64;100.00;102070.19;4983488;28;20217;-71
2023/04/07 04:25:48;;;;;;;14.13;11.80;;;;;;;7.65;100.00;102074.53;4984343;28;20221;-71
2023/04/07 04:28:14;;;;;;;12.43;11.10;;;;;;;7.57;100.00;102077.94;4985640;28;20185;-71
2023/04/07 04:30:39;;;;;;;12.10;10.90;;;;;;;7.41;100.00;102053.75;4965113;28;20691;-71
2023/04/07 04:33:06;;;;;;;12.53;10.57;;;;;;;7.53;100.00;102052.53;4982474;28;20267;-71
2023/04/07 04:35:31;;;;;;;12.93;11.57;;;;;;;7.53;100.00;102063.22;4984111;28;20232;-71
2023/04/07 04:37:57;;;;;;;13.20;11.80;;;;;;;7.47;100.00;102070.00;4982416;28;20457;-71
2023/04/07 04:40:22;;;;;;;13.77;12.27;;;;;;;7.52;100.00;102082.03;4977627;28;20210;-70
2023/04/07 04:42:47;;;;;;;12.30;11.00;;;;;;;7.69;100.00;102094.59;4982969;28;20189;-71
2023/04/07 04:45:13;;;;;;;13.33;12.03;;;;;;;7.67;100.00;102081.41;4976123;28;20612;-71
2023/04/07 04:47:39;;;;;;;15.00;12.77;;;;;;;7.53;100.00;102089.91;4974775;28;20194;-71
2023/04/07 04:50:06;;;;;;;12.70;11.10;;;;;;;7.37;100.00;102063.84;4981183;28;20545;-71
2023/04/07 04:52:31;;;;;;;14.87;12.60;;;;;;;7.62;100.00;102098.88;4980003;28;20461;-71
2023/04/07 04:54:57;;;;;;;13.80;12.40;;;;;;;7.17;100.00;102041.75;4974733;28;20440;-71
2023/04/07 04:57:22;;;;;;;15.20;12.03;;;;;;;7.61;100.00;102095.38;4976544;28;20653;-71
2023/04/07 04:59:47;;;;;;;14.13;12.63;;;;;;;7.48;100.00;102093.03;4978741;28;20198;-71
2023/04/07 05:02:13;;;;;;;15.00;13.40;;;;;;;7.64;100.00;102110.25;4979477;28;20645;-71
2023/04/07 05:04:38;;;;;;;12.70;11.03;;;;;;;7.39;100.00;102083.22;4981628;28;20688;-71
2023/04/07 05:07:04;;;;;;;14.10;12.60;;;;;;;7.45;100.00;102095.16;4976579;28;20312;-71
2023/04/07 05:09:30;;;;;;;14.57;13.03;;;;;;;7.44;100.00;102088.13;4985706;28;20674;-72
2023/04/07 05:11:56;;;;;;;17.90;14.00;;;;;;;7.53;100.00;102081.06;4980073;28;20291;-72
2023/04/07 05:14:22;;;;;;;15.10;13.03;;;;;;;7.52;100.00;102108.75;4963536;28;20989;-72
2023/04/07 05:16:47;;;;;;;14.33;12.83;;;;;;;6.51;100.00;101969.84;4985266;28;20476;-71
2023/04/07 05:19:13;;;;;;;18.07;13.80;;;;;;;7.22;100.00;102057.31;4984598;28;20204;-71
2023/04/07 05:21:39;;;;;;;17.90;12.93;;;;;;;7.27;100.00;102059.56;4976684;28;20201;-71
2023/04/07 05:24:05;;;;;;;15.27;13.67;;;;;;;7.07;100.00;102029.44;4976057;28;20499;-72
2023/04/07 05:26:30;;;;;;;14.97;13.37;;;;;;;7.52;100.00;102120.28;4975267;28;20224;-72
2023/04/07 05:28:56;;;;;;;15.27;13.67;;;;;;;7.35;100.00;102124.56;4983594;28;20455;-72
2023/04/07 05:31:21;;;;;;;17.10;15.30;;;;;;;7.29;100.00;102126.97;4981116;28;20324;-72
2023/04/07 05:33:47;;;;;;;16.60;14.77;;;;;;;7.25;100.00;102116.56;4982380;28;20204;-71
2023/04/07 05:36:12;;;;;;;17.30;14.57;;;;;;;7.31;100.00;102107.13;4962348;28;20205;-72
2023/04/07 05:38:37;;;;;;;19.33;15.90;;;;;;;7.36;100.00;102123.56;4963546;28;20229;-72
2023/04/07 05:41:03;;;;;;;16.03;14.43;;;;;;;7.03;100.00;102092.94;4983878;28;20302;-72
2023/04/07 05:43:29;;;;;;;18.53;15.60;;;;;;;7.12;100.00;102080.56;4980647;28;20234;-71
2023/04/07 05:45:54;;;;;;;16.23;14.37;;;;;;;7.01;100.00;102087.72;4982366;28;20208;-72
2023/04/07 05:48:19;;;;;;;17.60;14.03;;;;;;;7.26;100.00;102112.06;4981828;28;20683;-72
2023/04/07 05:50:45;;;;;;;17.10;14.63;;;;;;;7.25;100.00;102105.91;4984626;28;20303;-72
2023/04/07 05:53:10;;;;;;;16.20;14.43;;;;;;;7.28;100.00;102094.09;4984269;28;20273;-71
2023/04/07 05:55:36;;;;;;;15.70;14.10;;;;;;;7.14;100.00;102078.56;4962760;28;20182;-72
2023/04/07 05:58:01;;;;;;;16.93;14.10;;;;;;;6.61;100.00;101980.47;4983455;28;20190;-72
2023/04/07 06:00:26;;;;;;;19.00;15.20;;;;;;;7.39;100.00;102109.94;4982165;28;20322;-72
2023/04/07 06:02:52;;;;;;;16.13;14.43;;;;;;;7.17;100.00;102089.78;4985565;28;20186;-72
2023/04/07 06:05:18;;;;;;;15.60;14.00;;;;;;;7.38;100.00;102089.56;4972633;28;20221;-72
2023/04/07 06:07:44;;;;;;;16.70;14.93;;;;;;;6.86;100.00;102011.00;4988425;28;20761;-72
2023/04/07 06:10:09;;;;;;;14.83;12.90;;;;;;;7.22;100.00;102081.34;4986266;28;20211;-72
2023/04/07 06:12:35;;;;;;;16.80;15.10;;;;;;;7.17;100.00;102039.06;4982686;28;20193;-72
2023/04/07 06:15:00;;;;;;;17.97;14.20;;;;;;;7.32;100.00;102055.47;4987172;28;20186;-72
2023/04/07 06:17:25;;;;;;;14.10;12.60;;;;;;;6.68;100.00;101981.56;4970322;28;20303;-72
2023/04/07 06:19:51;;;;;;;15.80;13.37;;;;;;;6.87;100.00;101999.34;4987739;28;20189;-72
2023/04/07 06:22:16;;;;;;;15.13;12.97;;;;;;;6.97;100.00;102018.78;4987174;28;20213;-72
2023/04/07 06:24:42;;;;;;;14.23;12.73;;;;;;;7.00;100.00;102032.69;4981383;28;20250;-71
2023/04/07 06:27:07;;;;;;;14.40;12.90;;;;;;;7.03;100.00;102042.25;4985460;28;20622;-72
2023/04/07 06:29:33;;;;;;;15.40;13.40;;;;;;;7.09;100.00;102043.47;4969216;28;20536;-71
2023/04/07 06:31:59;;;;;;;14.77;13.27;;;;;;;7.13;100.00;102034.19;4984875;28;20635;-71
2023/04/07 06:34:25;;;;;;;14.63;13.00;;;;;;;7.23;100.00;102040.31;4988211;28;20186;-72
2023/04/07 06:36:50;;;;;;;14.73;12.80;;;;;;;6.99;100.00;101984.81;4988274;28;21125;-72
2023/04/07 06:39:16;;;;;;;14.73;13.23;;;;;;;7.32;100.00;102019.91;4983164;28;20218;-72
2023/04/07 06:41:45;;;;;;;17.70;13.27;;;;;;;7.35;100.00;102020.47;4985082;28;20209;-72
2023/04/07 06:44:11;;;;;;;14.70;13.03;;;;;;;6.90;100.00;101943.88;4982018;28;20803;-72
2023/04/07 06:46:36;;;;;;;14.73;13.13;;;;;;;7.22;100.00;102011.94;4978767;28;20491;-72
2023/04/07 06:49:02;;;;;;;14.07;12.67;;;;;;;7.40;100.00;102014.66;4979609;28;20185;-72
2023/04/07 06:51:28;;;;;;;14.90;13.30;;;;;;;7.51;100.00;102013.63;4984823;28;20264;-71
2023/04/07 06:53:54;;;;;;;14.87;13.27;;;;;;;7.43;100.00;101998.34;4964513;28;20520;-72
2023/04/07 06:56:20;;;;;;;17.60;14.03;;;;;;;7.62;100.00;102005.41;4992242;28;20500;-71
2023/04/07 06:58:45;;;;;;;17.20;12.80;;;;;;;7.46;100.00;101971.34;4990159;28;20217;-72
2023/04/07 07:01:10;;;;;;;15.40;13.37;;;;;;;7.25;100.00;101896.91;4984026;28;20664;-71
2023/04/07 07:03:36;;;;;;;16.37;13.07;;;;;;;7.88;100.00;101960.91;4982078;28;20209;-72
2023/04/07 07:06:01;;;;;;;17.70;11.93;;;;;;;7.51;100.00;101915.69;4978164;28;20217;-73
2023/04/07 07:08:28;;;;;;;15.30;12.30;;;;;;;8.10;100.00;101986.34;4981172;28;20294;-72
2023/04/07 07:10:53;;;;;;;13.23;11.87;;;;;;;7.72;100.00;101934.06;4975841;28;20228;-72
2023/04/07 07:13:25;;;;;;;13.57;12.17;;;;;;;8.11;100.00;101949.75;4982560;28;20445;-75
2023/04/07 07:15:51;;;;;;;16.00;13.03;;;;;;;6.77;100.00;101778.06;4957434;28;20653;-73
2023/04/07 07:18:17;;;;;;;14.43;10.67;;;;;;;7.83;100.00;101941.00;4963421;28;20440;-74
2023/04/07 07:20:43;;;;;;;12.63;11.33;;;;;;;8.22;100.00;101986.94;4977452;28;20559;-75
2023/04/07 07:23:08;;;;;;;13.83;11.27;;;;;;;8.24;100.00;101974.22;4986041;28;21046;-74
2023/04/07 07:25:34;;;;;;;14.00;10.73;;;;;;;8.23;100.00;101971.72;4982215;28;20200;-71
2023/04/07 07:28:00;;;;;;;11.80;10.53;;;;;;;8.13;100.00;101956.63;4979624;28;20687;-71
2023/04/07 07:30:25;;;;;;;12.03;10.43;;;;;;;7.84;100.00;101922.16;4966331;28;20261;-72
2023/04/07 07:32:52;;;;;;;12.90;10.00;;;;;;;7.42;100.00;101826.69;4983275;28;20197;-71
2023/04/07 07:35:18;;;;;;;11.87;10.67;;;;;;;8.38;100.00;101963.00;4981747;28;20197;-71
2023/04/07 07:37:44;;;;;;;11.60;9.97;;;;;;;8.42;100.00;101962.69;4981406;28;20433;-72
2023/04/07 07:40:10;;;;;;;12.10;10.90;;;;;;;8.17;100.00;101925.06;4967472;28;20475;-72
2023/04/07 07:42:36;;;;;;;11.10;10.10;;;;;;;8.51;100.00;101978.66;4985737;28;20204;-72
2023/04/07 07:45:02;;;;;;;11.50;10.27;;;;;;;8.19;100.00;101917.75;4983278;28;20468;-74
2023/04/07 07:47:27;;;;;;;12.53;9.83;;;;;;;8.53;100.00;101975.81;4968652;28;20527;-72
2023/04/07 07:49:53;;;;;;;11.60;10.47;;;;;;;7.97;100.00;101862.97;4982029;28;20441;-72
2023/04/07 07:52:19;;;;;;;10.97;9.83;;;;;;;8.23;100.00;101902.22;4979319;28;20638;-70
2023/04/07 07:54:45;;;;;;;11.20;10.10;;;;;;;8.77;100.00;101970.59;4980446;28;20193;-73
2023/04/07 07:57:11;;;;;;;10.00;9.00;;;;;;;8.77;100.00;101962.59;4984246;28;20455;-70
2023/04/07 07:59:37;;;;;;;11.13;9.60;;;;;;;8.80;100.00;101972.97;4971444;28;20236;-73
2023/04/07 08:02:02;;;;;;;10.10;9.10;;;;;;;9.09;100.00;101982.47;4985450;28;20248;-71
2023/04/07 08:04:28;;;;;;;13.17;10.70;;;;;;;8.97;100.00;101949.81;4957599;28;20453;-71
2023/04/07 08:06:54;;;;;;;10.83;9.73;;;;;;;8.65;100.00;101910.38;4984109;28;20194;-73
2023/04/07 08:09:19;;;;;;;9.60;8.63;;;;;;;8.54;100.00;101902.63;4983118;28;20669;-73
2023/04/07 08:11:47;;;;;;;11.07;9.30;;;;;;;9.25;100.00;101981.66;4986119;28;20282;-73
2023/04/07 08:14:13;;;;;;;10.70;9.60;;;;;;;9.25;100.00;101976.31;4984621;28;20185;-72
2023/04/07 08:16:38;;;;;;;10.47;9.37;;;;;;;9.09;100.00;101938.81;4984167;28;20441;-73
2023/04/07 08:19:04;;;;;;;9.13;8.23;;;;;;;9.40;100.00;101982.75;4980254;28;20449;-72
2023/04/07 08:21:30;;;;;;;9.83;8.30;;;;;;;9.05;100.00;101898.13;4986551;28;20201;-72
2023/04/07 08:23:56;;;;;;;9.97;8.97;;;;;;;9.62;100.00;101973.22;4987212;28;20186;-73
2023/04/07 08:26:21;;;;;;;9.50;8.60;;;;;;;9.54;100.00;101964.34;4969665;28;20495;-73
2023/04/07 08:28:50;;;;;;;9.67;8.67;;;;;;;9.41;100.00;101925.50;4985072;28;20196;-72
2023/04/07 08:31:16;;;;;;;9.17;8.30;;;;;;;9.63;100.00;101961.53;4981556;28;20225;-73
2023/04/07 08:33:41;;;;;;;9.73;8.80;;;;;;;9.24;100.00;101916.59;4981504;28;20452;-73
2023/04/07 08:36:06;;;;;;;9.53;8.63;;;;;;;9.62;100.00;101967.03;4986252;28;20236;-71
2023/04/07 08:38:32;;;;;;;8.63;7.73;;;;;;;9.68;100.00;101972.56;4988488;28;20276;-73
2023/04/07 08:41:02;;;;;;;9.30;8.40;;;;;;;9.65;100.00;101978.25;4984765;28;20585;-74
2023/04/07 08:43:28;;;;;;;8.40;7.60;;;;;;;9.53;100.00;101968.88;4978194;28;20754;-74
2023/04/07 08:45:56;;;;;;;8.53;7.67;;;;;;;9.71;100.00;101979.44;4977589;28;20480;-74
2023/04/07 08:48:26;;;;;;;8.40;7.60;;;;;;;9.86;100.00;101979.63;4978363;28;20969;-75
2023/04/07 08:50:52;;;;;;;9.60;7.53;;;;;;;9.86;100.00;101988.50;4987058;28;20448;-74
2023/04/07 08:53:26;;;;;;;9.10;8.03;;;;;;;10.00;100.00;101994.22;4985750;28;20452;-72
2023/04/07 08:55:53;;;;;;;8.13;7.40;;;;;;;9.71;100.00;101924.00;4975877;28;20444;-72
2023/04/07 08:58:20;;;;;;;8.63;7.70;;;;;;;9.95;100.00;101917.84;4985369;28;20444;-72
2023/04/07 09:00:47;;;;;;;8.07;7.27;;;;;;;9.45;100.00;101842.97;4987307;28;20475;-72
2023/04/07 09:03:15;;;;;;;8.20;7.40;;;;;;;10.38;100.00;101974.78;4986214;28;20919;-72
2023/04/07 09:05:44;;;;;;;11.63;7.60;;;;;;;10.35;100.00;101968.94;4964414;28;22058;-72
2023/04/07 09:08:10;;;;;;;8.07;7.20;;;;;;;10.30;100.00;101944.47;4977767;28;20449;-73
2023/04/07 09:10:36;;;;;;;7.20;6.50;;;;;;;10.63;100.00;101980.13;4961412;28;20472;-72
2023/04/07 09:13:01;;;;;;;7.37;6.27;;;;;;;10.57;100.00;101956.66;4964008;28;20660;-73
2023/04/07 09:15:31;;;;;;;7.33;6.63;;;;;;;10.63;100.00;101978.28;4980426;28;20440;-72
2023/04/07 09:17:58;;;;;;;7.30;6.53;;;;;;;10.25;100.00;101898.53;4984902;28;20186;-72
2023/04/07 09:20:24;;;;;;;8.10;6.50;;;;;;;10.42;100.00;101944.97;4983294;28;20500;-72
2023/04/07 09:22:50;;;;;;;8.50;6.77;;;;;;;10.50;100.00;101958.34;4986799;28;20464;-73
2023/04/07 09:25:22;;;;;;;6.97;6.37;;;;;;;10.53;100.00;101958.00;4985619;28;20979;-72
2023/04/07 09:27:56;;;;;;;6.87;6.17;;;;;;;10.44;100.00;101938.41;4980331;28;20526;-72
2023/04/07 09:30:21;;;;;;;7.80;7.00;;;;;;;10.46;100.00;101955.16;4983810;28;20472;-73
2023/04/07 09:32:47;;;;;;;8.20;7.37;;;;;;;10.73;100.00;101969.19;4985127;28;20548;-73
2023/04/07 09:35:12;;;;;;;7.60;6.90;;;;;;;10.31;100.00;101876.44;4983856;28;20189;-72
2023/04/07 09:37:38;;;;;;;8.57;7.27;;;;;;;10.89;100.00;101965.63;4984251;28;20554;-73
2023/04/07 09:40:04;;;;;;;7.53;6.70;;;;;;;10.64;100.00;101930.81;4983130;28;20197;-72
2023/04/07 09:42:31;;;;;;;8.20;7.13;;;;;;;10.84;100.00;101917.81;4983692;28;20205;-73
2023/04/07 09:45:00;;;;;;;7.40;6.67;;;;;;;10.61;100.00;101905.16;4986578;28;20483;-73
2023/04/07 09:47:30;;;;;;;8.07;7.27;;;;;;;10.94;100.00;101939.94;4987879;28;20456;-73
2023/04/07 09:49:58;;;;;;;8.77;7.87;;;;;;;10.68;100.00;101889.22;4987104;28;20432;-73
2023/04/07 09:52:49;;;;;;;7.30;6.60;;;;;;;11.25;100.00;101958.75;4986797;28;20856;-73
2023/04/07 09:55:16;;;;;;;7.33;6.63;;;;;;;10.86;100.00;101878.22;4986306;28;20480;-73
2023/04/07 09:57:43;;;;;;;8.90;7.80;;;;;;;11.26;100.00;101940.78;4987639;28;20471;-73
2023/04/07 10:00:09;;;;;;;8.40;6.67;;;;;;;11.36;100.00;101949.44;4971865;28;20448;-73
2023/04/07 10:02:35;;;;;;;8.70;7.60;;;;;;;10.75;100.00;101868.72;4988381;28;20810;-73
2023/04/07 10:05:01;;;;;;;7.83;7.00;;;;;;;11.03;100.00;101897.78;4989277;28;20514;-72
2023/04/07 10:07:26;;;;;;;8.70;6.90;;;;;;;11.05;100.00;101891.22;4991045;28;20927;-73
2023/04/07 10:09:52;;;;;;;7.97;7.17;;;;;;;11.47;100.00;101922.19;4987194;28;20440;-73
2023/04/07 10:12:18;;;;;;;9.03;8.07;;;;;;;11.56;100.00;101933.72;4989491;28;20652;-74
2023/04/07 10:14:45;;;;;;;8.33;7.43;;;;;;;11.36;100.00;101884.16;4989106;28;20204;-73
2023/04/07 10:17:17;;;;;;;8.20;7.30;;;;;;;11.68;100.00;101918.84;4988588;28;20421;-74
2023/04/07 10:19:44;;;;;;;8.73;7.70;;;;;;;11.70;100.00;101899.84;4989385;28;20456;-74
2023/04/07 10:22:11;;;;;;;8.40;7.60;;;;;;;11.67;100.00;101902.91;4989466;28;21546;-74
2023/04/07 10:24:42;;;;;;;7.50;6.80;;;;;;;11.88;100.00;101903.09;4988530;28;20455;-74
2023/04/07 10:27:13;;;;;;;9.60;8.50;;;;;;;11.69;100.00;101861.41;4991969;28;20421;-74
2023/04/07 10:29:41;;;;;;;9.13;8.13;;;;;;;11.70;100.00;101864.91;4991443;28;20433;-73
2023/04/07 10:32:07;;;;;;;8.60;7.30;;;;;;;11.80;100.00;101851.22;4989235;28;20837;-74
2023/04/07 10:34:56;;;;;;;8.93;7.80;;;;;;;11.99;100.00;101896.44;4991623;28;20429;-74
2023/04/07 10:37:23;;;;;;;9.87;8.30;;;;;;;11.96;100.00;101894.13;4989153;28;20213;-74
2023/04/07 10:40:09;;;;;;;8.77;7.60;;;;;;;11.81;100.00;101875.25;4988960;28;20433;-74
2023/04/07 10:42:37;;;;;;;8.07;7.33;;;;;;;12.14;100.00;101893.78;4990686;28;20439;-74
2023/04/07 10:45:08;;;;;;;8.07;7.27;;;;;;;11.57;100.00;101808.25;4989929;28;20555;-74
2023/04/07 10:47:52;;;;;;;7.90;7.10;;;;;;;12.24;100.00;101904.25;4990630;28;20432;-74
2023/04/07 10:50:20;;;;;;;8.57;7.40;;;;;;;12.24;100.00;101904.25;4991722;28;20433;-74
2023/04/07 10:52:47;;;;;;;7.63;6.83;;;;;;;12.46;100.00;101883.69;4972482;28;20468;-74
2023/04/07 10:55:33;;;;;;;9.10;8.17;;;;;;;12.47;100.00;101896.09;4990810;28;20452;-74
2023/04/07 10:58:19;;;;;;;10.90;6.90;;;;;;;12.57;100.00;101899.38;4990167;28;20436;-74
2023/04/07 11:00:57;;;;;;;8.60;7.73;;;;;;;12.69;100.00;101897.03;4989708;28;20448;-74
2023/04/07 11:03:24;;;;;;;10.33;7.73;;;;;;;12.67;100.00;101902.63;4989205;28;20425;-74
2023/04/07 11:05:49;;;;;;;11.17;8.13;;;;;;;12.70;100.00;101907.63;4988678;28;20471;-74
2023/04/07 11:08:15;;;;;;;10.10;9.10;;;;;;;12.28;100.00;101817.63;4988829;28;20426;-73
2023/04/07 11:10:46;;;;;;;9.70;8.00;;;;;;;12.80;100.00;101893.88;4973470;28;20225;-74
2023/04/07 11:13:12;;;;;;;10.63;9.20;;;;;;;12.39;100.00;101829.78;4988236;28;20650;-73
2023/04/07 11:15:38;;;;;;;9.70;8.60;;;;;;;12.51;100.00;101868.66;4989049;28;20500;-74